Terminal Aerodrome Forecast
Issued by NWS

Home | Current Version | Previous Version | Text Only | Print | Product List | Glossary On
Versions: 1 2 3 4 5 6 7 8 9 10 11 12 13 14 15 16 17 18 19 20 21 22 23 24 25 26
000
FTUS46 KOTX 270523
TAFMWH
TAF
KMWH 270523Z 2706/2806 16005KT P6SM -RA BKN035 OVC060
     FM270700 20006KT P6SM VCSH SCT050 OVC120
     FM270800 20003KT 6SM BCFG SCT001 SCT080
     FM271500 21006KT P6SM SCT080
     FM280300 26006KT P6SM SCT080=

USA.gov is the U.S. government's official web portal to all federal, state and local government web resources and services.